MSC Annamaria — H3HN — position and weather

sailwx.info

Track history (hours):
 
Tides and Currents Weather Stations Pressure Air Temp Water Temp Dewpoint Dewpoint Depression Visibility Wind Speed Wind Dir Waves Ship Positions

MSC Annamaria

Last reported at 2017-Feb-15 20:30 UTC. Time now 2017-Feb-23 04:48 UTC.
Position N 37°54' E 015°39'.

Length 188 m; draft 10.4 m.

Type: Ship (hazmat cat A). MMSI: 353852000.

Date/timePositionNaut miles runAvg speedWind from/ knotsBaromVisibWave heightAir tempDewpointWater temp
2017-Feb-15 20:30N 37°54' E 015°39'1314.2
2017-Feb-15 19:34N 38°06' E 015°35'1212.3
2017-Feb-15 18:33N 38°18' E 015°41'1312.6
2017-Feb-15 17:33N 38°27' E 015°52'1 1.4
2017-Feb-15 16:31N 38°27' E 015°54'0 0.0
2017-Feb-15 15:30N 38°27' E 015°54'0 0.0
2017-Feb-15 14:32N 38°27' E 015°54'0 0.0
2017-Feb-15 13:30N 38°27' E 015°54'0 0.0
2017-Feb-15 12:26N 38°27' E 015°54'0 0.0
2017-Feb-15 11:32N 38°27' E 015°54'0 0.0
2017-Feb-15 10:33N 38°27' E 015°54'0 0.0
2017-Feb-15 09:32N 38°27' E 015°54'0 0.0
2017-Feb-15 08:31N 38°27' E 015°54'0 0.0
2017-Feb-15 07:31N 38°27' E 015°54'0 0.0
2017-Feb-15 06:33N 38°27' E 015°54'0 0.0
2017-Feb-15 05:29N 38°27' E 015°54'0 0.0
2017-Feb-15 04:28N 38°27' E 015°54'0 0.0
2017-Feb-15 03:32N 38°27' E 015°54'0 0.0
2017-Feb-15 02:32N 38°27' E 015°54'0 0.0
2017-Feb-15 01:32N 38°27' E 015°54'0 0.0
2017-Feb-15 00:32N 38°27' E 015°54'0 0.0
2017-Feb-14 23:27N 38°27' E 015°54'0 0.0
2017-Feb-14 22:33N 38°27' E 015°54'0 0.0
2017-Feb-14 21:26N 38°27' E 015°54'0 0.0
2017-Feb-14 20:31N 38°27' E 015°54'0 0.0
2017-Feb-14 19:31N 38°27' E 015°54'0 0.0
2017-Feb-14 18:31N 38°27' E 015°54'0 0.0
2017-Feb-14 17:31N 38°27' E 015°54'0 0.0
2017-Feb-14 16:33N 38°27' E 015°54'0 0.0
2017-Feb-14 15:32N 38°27' E 015°54'0 0.0
2017-Feb-14 14:14N 38°27' E 015°54'0 0.0
2017-Feb-14 13:33N 38°27' E 015°54'0 0.0
2017-Feb-14 12:23N 38°27' E 015°54'0 0.0
2017-Feb-14 11:32N 38°27' E 015°54'0 0.0
2017-Feb-14 10:31N 38°27' E 015°54'0 0.0
2017-Feb-14 09:32N 38°27' E 015°54'0 0.0
2017-Feb-14 08:29N 38°27' E 015°54'2 1.8
2017-Feb-14 07:32N 38°27' E 015°52'5 5.4
2017-Feb-14 06:33N 38°27' E 015°45'2 1.7
2017-Feb-14 05:33N 38°25' E 015°44'3 3.4
2017-Feb-14 04:33N 38°22' E 015°42'1 0.8
2017-Feb-14 03:33N 38°23' E 015°43'1 0.7
2017-Feb-14 02:33N 38°23' E 015°43'1 0.7
2017-Feb-14 01:33N 38°24' E 015°44'1 0.7
2017-Feb-14 00:33N 38°24' E 015°44'1 0.9
2017-Feb-13 23:33N 38°25' E 015°45'1 1.1
2017-Feb-13 22:33N 38°26' E 015°45'5 4.6
2017-Feb-13 21:33N 38°30' E 015°43'1212.0
2017-Feb-13 20:33N 38°40' E 015°33'1211.6
2017-Feb-13 19:32N 38°49' E 015°24'2 1.8
2017-Feb-13 18:26N 38°50' E 015°22'1 1.0
2017-Feb-13 17:20N 38°49' E 015°23'1 1.1
2017-Feb-13 16:31N 38°49' E 015°23'1 1.2
2017-Feb-13 15:32N 38°48' E 015°25'1 1.3
2017-Feb-13 14:32N 38°47' E 015°26'2 1.5
2017-Feb-13 13:31N 38°46' E 015°28'1 1.4
2017-Feb-13 12:32N 38°45' E 015°29'1 1.3
2017-Feb-13 11:32N 38°44' E 015°30'1 1.3
2017-Feb-13 10:32N 38°43' E 015°31'1 1.4
2017-Feb-13 09:28N 38°42' E 015°32'1 1.4
2017-Feb-13 08:33N 38°41' E 015°33'1 1.2
2017-Feb-13 07:33N 38°40' E 015°33'1 1.2
2017-Feb-13 06:32N 38°39' E 015°34'1 1.0
2017-Feb-13 05:33N 38°38' E 015°35'1 0.9
2017-Feb-13 04:33N 38°37' E 015°36'1 0.8
2017-Feb-13 03:33N 38°37' E 015°36'1 0.8
2017-Feb-13 02:33N 38°36' E 015°37'1 0.8
2017-Feb-13 01:32N 38°36' E 015°38'1 0.7
2017-Feb-13 00:33N 38°35' E 015°38'1 0.6
2017-Feb-12 23:33N 38°35' E 015°39'1 0.6
2017-Feb-12 22:33N 38°34' E 015°39'1 0.6
2017-Feb-12 21:33N 38°34' E 015°40'1 0.8
2017-Feb-12 20:33N 38°33' E 015°40'1 1.0
2017-Feb-12 19:33N 38°33' E 015°41'1 1.3
2017-Feb-12 18:33N 38°32' E 015°43'2 1.7
2017-Feb-12 17:33N 38°31' E 015°45'1 1.3
2017-Feb-12 16:33N 38°30' E 015°46'0 0.4
2017-Feb-12 15:33N 38°30' E 015°45'1 1.2
2017-Feb-12 14:33N 38°30' E 015°44'1 1.3
2017-Feb-12 13:33N 38°29' E 015°42'1 1.0
2017-Feb-12 12:33N 38°29' E 015°41'2 1.8
2017-Feb-12 11:34N 38°27' E 015°42'1010.4
2017-Feb-12 10:33N 38°17' E 015°43'1111.0
2017-Feb-12 09:33N 38°07' E 015°36'1313.1
2017-Feb-12 08:33N 37°54' E 015°40'406 9.6
2017-Feb-10 14:21N 44°30' E 013°40'1113.5
2017-Feb-10 13:33N 44°39' E 013°32'1413.8
2017-Feb-10 12:33N 44°50' E 013°22'1413.8
2017-Feb-10 11:33N 45°02' E 013°11'1313.0
2017-Feb-10 10:33N 45°14' E 013°04'1212.0
2017-Feb-10 09:33N 45°26' E 013°07'1413.6
2017-Feb-10 08:33N 45°34' E 013°22'1212.5
2017-Feb-10 07:33N 45°36' E 013°39'4 4.0
2017-Feb-10 06:33N 45°33' E 013°44'0 0.0
2017-Feb-10 05:30N 45°33' E 013°44'0 0.0
2017-Feb-10 04:33N 45°33' E 013°44'0 0.0
2017-Feb-10 03:33N 45°33' E 013°44'0 0.0
2017-Feb-10 02:28N 45°33' E 013°44'0 0.0
2017-Feb-10 01:31N 45°33' E 013°44'0 0.0
2017-Feb-10 00:32N 45°33' E 013°44'0 0.0
2017-Feb-09 23:31N 45°33' E 013°44'0 0.0
2017-Feb-09 22:31N 45°33' E 013°44'0 0.0
2017-Feb-09 21:26N 45°33' E 013°44'0 0.0
2017-Feb-09 20:29N 45°33' E 013°44'0 0.0
2017-Feb-09 19:32N 45°33' E 013°44'0 0.0
2017-Feb-09 18:33N 45°33' E 013°44'0 0.0
2017-Feb-09 17:33N 45°33' E 013°44'2 2.2
2017-Feb-09 16:33N 45°34' E 013°41'0 0.1
2017-Feb-09 15:33N 45°34' E 013°41'0 0.0
2017-Feb-09 14:33N 45°34' E 013°41'0 0.0
2017-Feb-09 13:29N 45°34' E 013°41'0 0.0
2017-Feb-09 12:31N 45°34' E 013°41'0 0.0
2017-Feb-09 11:31N 45°34' E 013°41'0 0.0
2017-Feb-09 10:32N 45°34' E 013°41'0 0.0
2017-Feb-09 09:29N 45°34' E 013°41'0 0.0
2017-Feb-09 08:32N 45°34' E 013°41'0 0.0
2017-Feb-09 07:33N 45°34' E 013°41'0 0.0
2017-Feb-09 06:32N 45°34' E 013°41'0 0.0
2017-Feb-09 05:33N 45°34' E 013°41'0 0.0
2017-Feb-09 04:27N 45°34' E 013°41'0 0.0
2017-Feb-09 03:25N 45°34' E 013°41'0 0.0
2017-Feb-09 02:27N 45°34' E 013°41'0 0.0
2017-Feb-09 01:31N 45°34' E 013°41'0 0.0
2017-Feb-09 00:31N 45°34' E 013°41'0 0.0
2017-Feb-08 23:31N 45°34' E 013°41'0 0.0
2017-Feb-08 22:28N 45°34' E 013°41'0 0.0
2017-Feb-08 21:33N 45°34' E 013°41'0 0.0
2017-Feb-08 20:32N 45°34' E 013°41'0 0.0
2017-Feb-08 19:30N 45°34' E 013°41'0 0.0
2017-Feb-08 18:27N 45°34' E 013°41'0 0.0
2017-Feb-08 17:31N 45°34' E 013°41'0 0.0
2017-Feb-08 16:32N 45°34' E 013°41'0 0.0
2017-Feb-08 15:32N 45°34' E 013°41'0 0.0
2017-Feb-08 14:28N 45°34' E 013°41'0 0.0
2017-Feb-08 13:31N 45°34' E 013°41'0 0.0
2017-Feb-08 12:31N 45°34' E 013°41'0 0.0
2017-Feb-08 11:29N 45°34' E 013°41'0 0.0
2017-Feb-08 10:23N 45°34' E 013°41'0 0.1
2017-Feb-08 09:31N 45°34' E 013°41'0 0.0
2017-Feb-08 08:31N 45°34' E 013°41'0 0.1
2017-Feb-08 07:33N 45°34' E 013°41'1 0.8
2017-Feb-08 06:33N 45°33' E 013°41'10 9.8
2017-Feb-08 05:33N 45°33' E 013°27'1313.3
2017-Feb-08 04:33N 45°24' E 013°13'1313.3
2017-Feb-08 03:33N 45°10' E 013°16'1413.6
2017-Feb-08 02:33N 44°58' E 013°24'1212.0
2017-Feb-08 01:33N 44°47' E 013°31'1313.4
2017-Feb-08 00:33N 44°36' E 013°41'1313.2
2017-Feb-07 23:32N 44°25' E 013°52'1313.3
2017-Feb-07 22:33N 44°14' E 014°02'51 2.0
2017-Feb-06 20:33N 44°39' E 013°00'1413.8
2017-Feb-06 19:33N 44°52' E 012°53'1413.9
2017-Feb-06 18:33N 45°04' E 012°43'1212.1
2017-Feb-06 17:34N 45°12' E 012°31'1211.8
2017-Feb-06 16:34N 45°20' E 012°19'7 7.2
2017-Feb-06 15:32N 45°27' E 012°15'0 0.0
2017-Feb-06 14:31N 45°27' E 012°15'0 0.0
2017-Feb-06 13:33N 45°27' E 012°15'0 0.0
2017-Feb-06 12:31N 45°27' E 012°15'0 0.0
2017-Feb-06 11:33N 45°27' E 012°15'0 0.0
2017-Feb-06 10:31N 45°27' E 012°15'0 0.0
2017-Feb-06 09:32N 45°27' E 012°15'0 0.0
2017-Feb-06 08:31N 45°27' E 012°15'0 0.0
2017-Feb-06 07:31N 45°27' E 012°15'0 0.0
2017-Feb-06 06:33N 45°27' E 012°15'6 6.5
2017-Feb-06 05:34N 45°21' E 012°16'7 6.5
2017-Feb-06 04:33N 45°20' E 012°25'2 1.7
2017-Feb-06 03:31N 45°22' E 012°24'0 0.0
2017-Feb-06 02:31N 45°22' E 012°24'0 0.0
2017-Feb-06 01:31N 45°22' E 012°24'0 0.0
2017-Feb-06 00:32N 45°22' E 012°24'0 0.0
2017-Feb-05 23:31N 45°22' E 012°24'0 0.0
2017-Feb-05 22:32N 45°22' E 012°24'0 0.0
2017-Feb-05 21:33N 45°22' E 012°24'0 0.1
2017-Feb-05 20:33N 45°22' E 012°24'  
Track history (hours):
 
Tides and Currents Weather Stations Pressure Air Temp Water Temp Dewpoint Dewpoint Depression Visibility Wind Speed Wind Dir Waves Ship Positions

MSC Annamaria

Last reported at 2017-Feb-15 20:30 UTC. Time now 2017-Feb-23 04:48 UTC.
Position N 37°54' E 015°39'.

Length 188 m; draft 10.4 m.

Type: Ship (hazmat cat A). MMSI: 353852000.

Date/timePositionNaut miles runAvg speedWind from/ knotsBaromVisibWave heightAir tempDewpointWater temp
2017-Feb-15 20:30N 37°54' E 015°39'1314.2
2017-Feb-15 19:34N 38°06' E 015°35'1212.3
2017-Feb-15 18:33N 38°18' E 015°41'1312.6
2017-Feb-15 17:33N 38°27' E 015°52'1 1.4
2017-Feb-15 16:31N 38°27' E 015°54'0 0.0
2017-Feb-15 15:30N 38°27' E 015°54'0 0.0
2017-Feb-15 14:32N 38°27' E 015°54'0 0.0
2017-Feb-15 13:30N 38°27' E 015°54'0 0.0
2017-Feb-15 12:26N 38°27' E 015°54'0 0.0
2017-Feb-15 11:32N 38°27' E 015°54'0 0.0
2017-Feb-15 10:33N 38°27' E 015°54'0 0.0
2017-Feb-15 09:32N 38°27' E 015°54'0 0.0
2017-Feb-15 08:31N 38°27' E 015°54'0 0.0
2017-Feb-15 07:31N 38°27' E 015°54'0 0.0
2017-Feb-15 06:33N 38°27' E 015°54'0 0.0
2017-Feb-15 05:29N 38°27' E 015°54'0 0.0
2017-Feb-15 04:28N 38°27' E 015°54'0 0.0
2017-Feb-15 03:32N 38°27' E 015°54'0 0.0
2017-Feb-15 02:32N 38°27' E 015°54'0 0.0
2017-Feb-15 01:32N 38°27' E 015°54'0 0.0
2017-Feb-15 00:32N 38°27' E 015°54'0 0.0
2017-Feb-14 23:27N 38°27' E 015°54'0 0.0
2017-Feb-14 22:33N 38°27' E 015°54'0 0.0
2017-Feb-14 21:26N 38°27' E 015°54'0 0.0
2017-Feb-14 20:31N 38°27' E 015°54'0 0.0
2017-Feb-14 19:31N 38°27' E 015°54'0 0.0
2017-Feb-14 18:31N 38°27' E 015°54'0 0.0
2017-Feb-14 17:31N 38°27' E 015°54'0 0.0
2017-Feb-14 16:33N 38°27' E 015°54'0 0.0
2017-Feb-14 15:32N 38°27' E 015°54'0 0.0
2017-Feb-14 14:14N 38°27' E 015°54'0 0.0
2017-Feb-14 13:33N 38°27' E 015°54'0 0.0
2017-Feb-14 12:23N 38°27' E 015°54'0 0.0
2017-Feb-14 11:32N 38°27' E 015°54'0 0.0
2017-Feb-14 10:31N 38°27' E 015°54'0 0.0
2017-Feb-14 09:32N 38°27' E 015°54'0 0.0
2017-Feb-14 08:29N 38°27' E 015°54'2 1.8
2017-Feb-14 07:32N 38°27' E 015°52'5 5.4
2017-Feb-14 06:33N 38°27' E 015°45'2 1.7
2017-Feb-14 05:33N 38°25' E 015°44'3 3.4
2017-Feb-14 04:33N 38°22' E 015°42'1 0.8
2017-Feb-14 03:33N 38°23' E 015°43'1 0.7
2017-Feb-14 02:33N 38°23' E 015°43'1 0.7
2017-Feb-14 01:33N 38°24' E 015°44'1 0.7
2017-Feb-14 00:33N 38°24' E 015°44'1 0.9
2017-Feb-13 23:33N 38°25' E 015°45'1 1.1
2017-Feb-13 22:33N 38°26' E 015°45'5 4.6
2017-Feb-13 21:33N 38°30' E 015°43'1212.0
2017-Feb-13 20:33N 38°40' E 015°33'1211.6
2017-Feb-13 19:32N 38°49' E 015°24'2 1.8
2017-Feb-13 18:26N 38°50' E 015°22'1 1.0
2017-Feb-13 17:20N 38°49' E 015°23'1 1.1
2017-Feb-13 16:31N 38°49' E 015°23'1 1.2
2017-Feb-13 15:32N 38°48' E 015°25'1 1.3
2017-Feb-13 14:32N 38°47' E 015°26'2 1.5
2017-Feb-13 13:31N 38°46' E 015°28'1 1.4
2017-Feb-13 12:32N 38°45' E 015°29'1 1.3
2017-Feb-13 11:32N 38°44' E 015°30'1 1.3
2017-Feb-13 10:32N 38°43' E 015°31'1 1.4
2017-Feb-13 09:28N 38°42' E 015°32'1 1.4
2017-Feb-13 08:33N 38°41' E 015°33'1 1.2
2017-Feb-13 07:33N 38°40' E 015°33'1 1.2
2017-Feb-13 06:32N 38°39' E 015°34'1 1.0
2017-Feb-13 05:33N 38°38' E 015°35'1 0.9
2017-Feb-13 04:33N 38°37' E 015°36'1 0.8
2017-Feb-13 03:33N 38°37' E 015°36'1 0.8
2017-Feb-13 02:33N 38°36' E 015°37'1 0.8
2017-Feb-13 01:32N 38°36' E 015°38'1 0.7
2017-Feb-13 00:33N 38°35' E 015°38'1 0.6
2017-Feb-12 23:33N 38°35' E 015°39'1 0.6
2017-Feb-12 22:33N 38°34' E 015°39'1 0.6
2017-Feb-12 21:33N 38°34' E 015°40'1 0.8
2017-Feb-12 20:33N 38°33' E 015°40'1 1.0
2017-Feb-12 19:33N 38°33' E 015°41'1 1.3
2017-Feb-12 18:33N 38°32' E 015°43'2 1.7
2017-Feb-12 17:33N 38°31' E 015°45'1 1.3
2017-Feb-12 16:33N 38°30' E 015°46'0 0.4
2017-Feb-12 15:33N 38°30' E 015°45'1 1.2
2017-Feb-12 14:33N 38°30' E 015°44'1 1.3
2017-Feb-12 13:33N 38°29' E 015°42'1 1.0
2017-Feb-12 12:33N 38°29' E 015°41'2 1.8
2017-Feb-12 11:34N 38°27' E 015°42'1010.4
2017-Feb-12 10:33N 38°17' E 015°43'1111.0
2017-Feb-12 09:33N 38°07' E 015°36'1313.1
2017-Feb-12 08:33N 37°54' E 015°40'406 9.6
2017-Feb-10 14:21N 44°30' E 013°40'1113.5
2017-Feb-10 13:33N 44°39' E 013°32'1413.8
2017-Feb-10 12:33N 44°50' E 013°22'1413.8
2017-Feb-10 11:33N 45°02' E 013°11'1313.0
2017-Feb-10 10:33N 45°14' E 013°04'1212.0
2017-Feb-10 09:33N 45°26' E 013°07'1413.6
2017-Feb-10 08:33N 45°34' E 013°22'1212.5
2017-Feb-10 07:33N 45°36' E 013°39'4 4.0
2017-Feb-10 06:33N 45°33' E 013°44'0 0.0
2017-Feb-10 05:30N 45°33' E 013°44'0 0.0
2017-Feb-10 04:33N 45°33' E 013°44'0 0.0
2017-Feb-10 03:33N 45°33' E 013°44'0 0.0
2017-Feb-10 02:28N 45°33' E 013°44'0 0.0
2017-Feb-10 01:31N 45°33' E 013°44'0 0.0
2017-Feb-10 00:32N 45°33' E 013°44'0 0.0
2017-Feb-09 23:31N 45°33' E 013°44'0 0.0
2017-Feb-09 22:31N 45°33' E 013°44'0 0.0
2017-Feb-09 21:26N 45°33' E 013°44'0 0.0
2017-Feb-09 20:29N 45°33' E 013°44'0 0.0
2017-Feb-09 19:32N 45°33' E 013°44'0 0.0
2017-Feb-09 18:33N 45°33' E 013°44'0 0.0
2017-Feb-09 17:33N 45°33' E 013°44'2 2.2
2017-Feb-09 16:33N 45°34' E 013°41'0 0.1
2017-Feb-09 15:33N 45°34' E 013°41'0 0.0
2017-Feb-09 14:33N 45°34' E 013°41'0 0.0
2017-Feb-09 13:29N 45°34' E 013°41'0 0.0
2017-Feb-09 12:31N 45°34' E 013°41'0 0.0
2017-Feb-09 11:31N 45°34' E 013°41'0 0.0
2017-Feb-09 10:32N 45°34' E 013°41'0 0.0
2017-Feb-09 09:29N 45°34' E 013°41'0 0.0
2017-Feb-09 08:32N 45°34' E 013°41'0 0.0
2017-Feb-09 07:33N 45°34' E 013°41'0 0.0
2017-Feb-09 06:32N 45°34' E 013°41'0 0.0
2017-Feb-09 05:33N 45°34' E 013°41'0 0.0
2017-Feb-09 04:27N 45°34' E 013°41'0 0.0
2017-Feb-09 03:25N 45°34' E 013°41'0 0.0
2017-Feb-09 02:27N 45°34' E 013°41'0 0.0
2017-Feb-09 01:31N 45°34' E 013°41'0 0.0
2017-Feb-09 00:31N 45°34' E 013°41'0 0.0
2017-Feb-08 23:31N 45°34' E 013°41'0 0.0
2017-Feb-08 22:28N 45°34' E 013°41'0 0.0
2017-Feb-08 21:33N 45°34' E 013°41'0 0.0
2017-Feb-08 20:32N 45°34' E 013°41'0 0.0
2017-Feb-08 19:30N 45°34' E 013°41'0 0.0
2017-Feb-08 18:27N 45°34' E 013°41'0 0.0
2017-Feb-08 17:31N 45°34' E 013°41'0 0.0
2017-Feb-08 16:32N 45°34' E 013°41'0 0.0
2017-Feb-08 15:32N 45°34' E 013°41'0 0.0
2017-Feb-08 14:28N 45°34' E 013°41'0 0.0
2017-Feb-08 13:31N 45°34' E 013°41'0 0.0
2017-Feb-08 12:31N 45°34' E 013°41'0 0.0
2017-Feb-08 11:29N 45°34' E 013°41'0 0.0
2017-Feb-08 10:23N 45°34' E 013°41'0 0.1
2017-Feb-08 09:31N 45°34' E 013°41'0 0.0
2017-Feb-08 08:31N 45°34' E 013°41'0 0.1
2017-Feb-08 07:33N 45°34' E 013°41'1 0.8
2017-Feb-08 06:33N 45°33' E 013°41'10 9.8
2017-Feb-08 05:33N 45°33' E 013°27'1313.3
2017-Feb-08 04:33N 45°24' E 013°13'1313.3
2017-Feb-08 03:33N 45°10' E 013°16'1413.6
2017-Feb-08 02:33N 44°58' E 013°24'1212.0
2017-Feb-08 01:33N 44°47' E 013°31'1313.4
2017-Feb-08 00:33N 44°36' E 013°41'1313.2
2017-Feb-07 23:32N 44°25' E 013°52'1313.3
2017-Feb-07 22:33N 44°14' E 014°02'51 2.0
2017-Feb-06 20:33N 44°39' E 013°00'1413.8
2017-Feb-06 19:33N 44°52' E 012°53'1413.9
2017-Feb-06 18:33N 45°04' E 012°43'1212.1
2017-Feb-06 17:34N 45°12' E 012°31'1211.8
2017-Feb-06 16:34N 45°20' E 012°19'7 7.2
2017-Feb-06 15:32N 45°27' E 012°15'0 0.0
2017-Feb-06 14:31N 45°27' E 012°15'0 0.0
2017-Feb-06 13:33N 45°27' E 012°15'0 0.0
2017-Feb-06 12:31N 45°27' E 012°15'0 0.0
2017-Feb-06 11:33N 45°27' E 012°15'0 0.0
2017-Feb-06 10:31N 45°27' E 012°15'0 0.0
2017-Feb-06 09:32N 45°27' E 012°15'0 0.0
2017-Feb-06 08:31N 45°27' E 012°15'0 0.0
2017-Feb-06 07:31N 45°27' E 012°15'0 0.0
2017-Feb-06 06:33N 45°27' E 012°15'6 6.5
2017-Feb-06 05:34N 45°21' E 012°16'7 6.5
2017-Feb-06 04:33N 45°20' E 012°25'2 1.7
2017-Feb-06 03:31N 45°22' E 012°24'0 0.0
2017-Feb-06 02:31N 45°22' E 012°24'0 0.0
2017-Feb-06 01:31N 45°22' E 012°24'0 0.0
2017-Feb-06 00:32N 45°22' E 012°24'0 0.0
2017-Feb-05 23:31N 45°22' E 012°24'0 0.0
2017-Feb-05 22:32N 45°22' E 012°24'0 0.0
2017-Feb-05 21:33N 45°22' E 012°24'0 0.1
2017-Feb-05 20:33N 45°22' E 012°24'  

Dump ship's entire track history